Nearby METAR Reports

 

KSJC - San Jose, California, USA
Distance from station: NE 14km
Actualización: 18/03/2019 18:53
Parcialmente nuboso
Parcialmente nuboso
 Viento del ONO
Viento: ONO 15 km/h
Temperatura: 19°C
Rocío: 10°C
Humedad: 56%
Barómetro: 1012.5 hPa
Clouds: Parcialmente nuboso
Visibility: 16 km
Cloud details: Few Clouds 3048 m
Parcialmente nuboso 5486 m
2019/03/19 01:53 KSJC 190153Z 30008KT 10SM FEW100 SCT180 19/10 A2990 RMK AO2 SLP126 T01940100
KNUQ - Moffett Nas/Mtn, California, USA
Distance from station: N 14km
Actualización: 18/03/2019 18:56
Despejado
Despejado
 Viento del ONO
Viento: ONO 9 km/h
Temperatura: 18°C
Rocío: 9°C
Humedad: 56%
Barómetro: 1013.2 hPa
Clouds: Despejado
Visibility: 16 km
2019/03/19 01:56 KNUQ 190156Z 29005KT 10SM CLR 18/09 A2992 RMK AO2 SLP133 T01830089
 
KPAO - Palo Alto, California, USA
Distance from station: NNO 23km
Actualización: 18/03/2019 18:47
Muy nuboso
Muy nuboso
 Viento del ONO
Viento: ONO 11 km/h
Temperatura: 17°C
Rocío: 10°C
Humedad: 64%
Barómetro: 1013.2 hPa
Clouds: Muy nuboso
Visibility: 16 km
Cloud details: Muy nuboso 6096 m
2019/03/19 01:47 KPAO 190147Z 29006KT 10SM BKN200 17/10 A2992
KRHV - San Jose/Reid, California, USA
Distance from station: ENE 19km
Actualización: 18/03/2019 18:50
Parcialmente nuboso
Parcialmente nuboso
 Viento del O
Viento: O 9 km/h
Temperatura: 23°C
Rocío: 0°C
Humedad: 22%
Barómetro: 1012.2 hPa
Clouds: Parcialmente nuboso
Visibility: 16 km
Cloud details: Parcialmente nuboso 4572 m
2019/03/19 01:50 KRHV 190150Z 27005KT 10SM SCT150 23/00 A2989
 
KOAK - Oakland, California, USA
Distance from station: NNO 50km
Actualización: 18/03/2019 18:53
Parcialmente nuboso
Parcialmente nuboso
 Viento del ONO
Viento: ONO 19 km/h
Temperatura: 16°C
Rocío: 11°C
Humedad: 72%
Barómetro: 1013.2 hPa
Clouds: Parcialmente nuboso
Visibility: 16 km
Cloud details: Few Clouds 427 m
Few Clouds 5486 m
Parcialmente nuboso 7620 m
2019/03/19 01:53 KOAK 190153Z 30010KT 10SM FEW014 FEW180 SCT250 16/11 A2992 RMK AO2 SLP131 T01560106
KSQL - San Carlos Airpo, California, USA
Distance from station: NO 34km
Actualización: 18/03/2019 18:48
Despejado
Despejado
 Viento del NO
Viento: NO 9 km/h
Temperatura: 16°C
Rocío: 10°C
Humedad: 68%
Barómetro: 1013.2 hPa
Clouds: Despejado
Visibility: 16 km
2019/03/19 01:48 KSQL 190148Z 31005KT 10SM SKC 16/10 A2992
 
KSFO - San Francisco, California, USA
Distance from station: NO 49km
Actualización: 18/03/2019 18:56
Parcialmente nuboso
Parcialmente nuboso
 Viento del ONO
Viento: ONO 26 km/h
Temperatura: 13°C
Rocío: 9°C
Humedad: 77%
Barómetro: 1012.9 hPa
Clouds: Parcialmente nuboso
Visibility: 16 km
Cloud details: Few Clouds 244 m
Parcialmente nuboso 6096 m
2019/03/19 01:56 KSFO 190156Z 29014KT 10SM FEW008 SCT200 13/09 A2991 RMK AO2 SLP128 T01280094
KE16 - San Martin, California, USA
Distance from station: ESE 43km
Actualización: 18/03/2019 17:15
NOT Current
Despejado
Despejado
 Viento del SO
Viento: SO 11 km/h
Temperatura: 22°C
Rocío: 1°C
Humedad: 25%
Barómetro: 1013.5 hPa
Clouds: Despejado
Visibility: 16 km
2019/03/19 00:15 KE16 190015Z AUTO 23006KT 10SM CLR 22/01 A2993 RMK AO2
 
KWVI - Watsonville, California, USA
Distance from station: SSE 44km
Actualización: 18/03/2019 18:53
Despejado
Despejado
 Viento del SSO
Viento: SSO 9 km/h
Temperatura: 13°C
Rocío: 11°C
Humedad: 88%
Barómetro: 1014.2 hPa
Clouds: Despejado
Visibility: 16 km
2019/03/19 01:53 KWVI 190153Z AUTO 21005KT 10SM CLR 13/11 A2995 RMK AO2 SLP142 T01280106
KHAF - Half Moon Bay, California, USA
Distance from station: ONO 50km
Actualización: 18/03/2019 19:00
Mist, Cubierto
Mist, Cubierto
 Viento del S
Viento: S 11 km/h
Temperatura: 12°C
Rocío: 10°C
Humedad: 88%
Barómetro: 1014.2 hPa
Resumen: Mist
Clouds: Cubierto
Visibility: 5 km
Cloud details: Cubierto 152 m
2019/03/19 02:00 KHAF 190200Z AUTO 17006KT 3SM BR OVC005 12/10 A2995 RMK AO2
 
KHWD - Hayward, California, USA
Distance from station: N 44km
Actualización: 18/03/2019 18:54
Despejado
Despejado
 Viento del ONO
Viento: ONO 13 km/h
Temperatura: 21°C
Rocío: 8°C
Humedad: 43%
Barómetro: 1012.5 hPa
Clouds: Despejado
Visibility: 16 km
2019/03/19 01:54 KHWD 190154Z 30007KT 10SM CLR 21/08 A2990 RMK AO2 SLP135 T02060083
KLVK - Livermore, California, USA
Distance from station: NNE 51km
Actualización: 18/03/2019 18:53
Despejado
Despejado
 Viento del NNE
Viento: NNE 7 km/h
Temperatura: 21°C
Rocío: 10°C
Humedad: 50%
Barómetro: 1012.5 hPa
Clouds: Despejado
Visibility: 16 km
2019/03/19 01:53 KLVK 190153Z 03004KT 10SM CLR 21/10 A2990 RMK AO2 SLP123 T02110100